DLH241 EGKK-EDDF
Flight info
| Callsign | DLH241 |
|---|---|
| Flight time | N/A |
| Altitude | 35000 |
| Route | ODVIK Y311 DVR UL9 KONAN UL607 KOK DCT REMBA UL607 SPI T180 NIVNU/N0353F230 T847 IMCOM IMCOM1B |
| Aircraft | A20N/M-SDE2E3FGHIRWXY/LB1 |
Departure
| Time | N/A |
|---|---|
| Airport | London Gatwick Airport (EGKK) |
Arrival
| Time | 2026-05-04 12:44 |
|---|---|
| Airport | Frankfurt Main Airport (EDDF) |
| Time | Latitude | Longitude | Altitude | Speed | Heading |
|---|---|---|---|---|---|
| 2026-05-04 11:51 | 51.16706 | 0.84435 | 16980 ft | 375 kts | 92° |
| 2026-05-04 11:51 | 51.16679 | 0.88589 | 17017 ft | 375 kts | 92° |
| 2026-05-04 11:51 | 51.16650 | 0.92755 | 17019 ft | 375 kts | 92° |
| 2026-05-04 11:52 | 51.16619 | 0.96919 | 17139 ft | 378 kts | 92° |
| 2026-05-04 11:52 | 51.16587 | 1.01124 | 17890 ft | 380 kts | 92° |
| 2026-05-04 11:52 | 51.16554 | 1.05350 | 18634 ft | 383 kts | 92° |
| 2026-05-04 11:52 | 51.16518 | 1.09631 | 19249 ft | 388 kts | 92° |
| 2026-05-04 11:53 | 51.16481 | 1.13954 | 19902 ft | 392 kts | 92° |
| 2026-05-04 11:53 | 51.16441 | 1.18326 | 20499 ft | 397 kts | 92° |
| 2026-05-04 11:53 | 51.16399 | 1.22751 | 21112 ft | 402 kts | 93° |
| 2026-05-04 11:53 | 51.16356 | 1.27225 | 21733 ft | 406 kts | 93° |
| 2026-05-04 11:55 | 51.15128 | 1.59629 | 25623 ft | 430 kts | 97° |
| 2026-05-04 11:55 | 51.14895 | 1.64386 | 26121 ft | 432 kts | 97° |
| 2026-05-04 11:56 | 51.14658 | 1.69166 | 26582 ft | 434 kts | 98° |
| 2026-05-04 11:56 | 51.14418 | 1.73962 | 27039 ft | 436 kts | 98° |
| 2026-05-04 11:56 | 51.14174 | 1.78811 | 27485 ft | 439 kts | 98° |
| 2026-05-04 11:56 | 51.13931 | 1.83626 | 28296 ft | 429 kts | 98° |
| 2026-05-04 11:57 | 51.13700 | 1.88251 | 29612 ft | 408 kts | 99° |
| 2026-05-04 11:57 | 51.13478 | 1.92673 | 30684 ft | 393 kts | 99° |
| 2026-05-04 11:57 | 51.13260 | 1.96913 | 31275 ft | 390 kts | 100° |
| 2026-05-04 11:57 | 51.13027 | 2.01254 | 31443 ft | 397 kts | 100° |
| 2026-05-04 11:58 | 51.12790 | 2.05639 | 31781 ft | 398 kts | 100° |
| 2026-05-04 11:58 | 51.12556 | 2.10018 | 32182 ft | 397 kts | 100° |
| 2026-05-04 11:58 | 51.12320 | 2.14407 | 32558 ft | 397 kts | 101° |
| 2026-05-04 11:58 | 51.12084 | 2.18794 | 32926 ft | 397 kts | 101° |
| 2026-05-04 11:59 | 51.11846 | 2.23171 | 33276 ft | 397 kts | 101° |
| 2026-05-04 11:59 | 51.11607 | 2.27553 | 33627 ft | 397 kts | 101° |
| 2026-05-04 11:59 | 51.11365 | 2.31941 | 33931 ft | 398 kts | 101° |
| 2026-05-04 12:00 | 51.10874 | 2.40738 | 33574 ft | 398 kts | 101° |
| 2026-05-04 12:00 | 51.10625 | 2.45149 | 33208 ft | 405 kts | 101° |
| 2026-05-04 12:00 | 51.10363 | 2.49683 | 33066 ft | 418 kts | 101° |
| 2026-05-04 12:00 | 51.10092 | 2.54358 | 33015 ft | 429 kts | 101° |
| 2026-05-04 12:01 | 51.09817 | 2.59145 | 33014 ft | 438 kts | 101° |
| 2026-05-04 12:02 | 51.04475 | 2.92773 | 33012 ft | 453 kts | 112° |
| 2026-05-04 12:03 | 51.02716 | 3.02385 | 33007 ft | 453 kts | 112° |
| 2026-05-04 12:03 | 51.00947 | 3.12003 | 33001 ft | 453 kts | 112° |
| 2026-05-04 12:04 | 50.99170 | 3.21606 | 32992 ft | 454 kts | 112° |
| 2026-05-04 12:04 | 50.97384 | 3.31208 | 32981 ft | 454 kts | 112° |
| 2026-05-04 12:05 | 50.95584 | 3.40833 | 32991 ft | 455 kts | 112° |
| 2026-05-04 12:05 | 50.93776 | 3.50457 | 32983 ft | 455 kts | 112° |
| 2026-05-04 12:06 | 50.91960 | 3.60073 | 32982 ft | 456 kts | 112° |
| 2026-05-04 12:06 | 50.90136 | 3.69686 | 32991 ft | 456 kts | 112° |
| 2026-05-04 12:07 | 50.88311 | 3.79251 | 32991 ft | 456 kts | 112° |
| 2026-05-04 12:07 | 50.86465 | 3.88875 | 33113 ft | 459 kts | 113° |
| 2026-05-04 12:08 | 50.85534 | 3.93708 | 33453 ft | 459 kts | 113° |
| 2026-05-04 12:08 | 50.84603 | 3.98538 | 33798 ft | 459 kts | 113° |
| 2026-05-04 12:08 | 50.83667 | 4.03377 | 34022 ft | 461 kts | 113° |
| 2026-05-04 12:08 | 50.82729 | 4.08216 | 34338 ft | 460 kts | 113° |
| 2026-05-04 12:09 | 50.81789 | 4.13051 | 34643 ft | 459 kts | 112° |
| 2026-05-04 12:09 | 50.80848 | 4.17874 | 34905 ft | 459 kts | 112° |
| 2026-05-04 12:09 | 50.78966 | 4.27491 | 34995 ft | 457 kts | 112° |
| 2026-05-04 12:10 | 50.77074 | 4.37113 | 34995 ft | 457 kts | 112° |
| 2026-05-04 12:10 | 50.75191 | 4.46642 | 34995 ft | 458 kts | 113° |
| 2026-05-04 12:11 | 50.73284 | 4.56246 | 34998 ft | 458 kts | 113° |
| 2026-05-04 12:11 | 50.71369 | 4.65839 | 35002 ft | 458 kts | 113° |
| 2026-05-04 12:12 | 50.69442 | 4.75448 | 35000 ft | 458 kts | 113° |
| 2026-05-04 12:12 | 50.67512 | 4.85030 | 35005 ft | 458 kts | 113° |
| 2026-05-04 12:14 | 50.60008 | 5.21602 | 34992 ft | 459 kts | 114° |
| 2026-05-04 12:15 | 50.58024 | 5.31149 | 34992 ft | 459 kts | 114° |
| 2026-05-04 12:15 | 50.55705 | 5.42249 | 34996 ft | 459 kts | 114° |
| 2026-05-04 12:16 | 50.54028 | 5.50240 | 34994 ft | 459 kts | 114° |
| 2026-05-04 12:16 | 50.52020 | 5.59768 | 34995 ft | 459 kts | 114° |
| 2026-05-04 12:17 | 50.50096 | 5.69355 | 34993 ft | 461 kts | 111° |
| 2026-05-04 12:17 | 50.48330 | 5.79058 | 34994 ft | 462 kts | 111° |
| 2026-05-04 12:18 | 50.46538 | 5.88730 | 34988 ft | 461 kts | 112° |
| 2026-05-04 12:18 | 50.44718 | 5.98387 | 34876 ft | 462 kts | 112° |
| 2026-05-04 12:19 | 50.43813 | 6.03161 | 34574 ft | 462 kts | 112° |
| 2026-05-04 12:19 | 50.42895 | 6.07992 | 33933 ft | 464 kts | 112° |
| 2026-05-04 12:19 | 50.41964 | 6.12867 | 33033 ft | 467 kts | 112° |
| 2026-05-04 12:19 | 50.41030 | 6.17746 | 32236 ft | 467 kts | 112° |
| 2026-05-04 12:20 | 50.40099 | 6.22611 | 31437 ft | 466 kts | 112° |
| 2026-05-04 12:20 | 50.39166 | 6.27469 | 30675 ft | 465 kts | 112° |
| 2026-05-04 12:20 | 50.38241 | 6.32282 | 30235 ft | 457 kts | 112° |
| 2026-05-04 12:20 | 50.37333 | 6.37006 | 29708 ft | 449 kts | 112° |
| 2026-05-04 12:21 | 50.36534 | 6.41739 | 28994 ft | 449 kts | 106° |
| 2026-05-04 12:21 | 50.36090 | 6.46585 | 28335 ft | 450 kts | 100° |
| 2026-05-04 12:21 | 50.35813 | 6.51442 | 27716 ft | 445 kts | 99° |
| 2026-05-04 12:21 | 50.35586 | 6.56261 | 27078 ft | 443 kts | 98° |
| 2026-05-04 12:22 | 50.35412 | 6.61067 | 26442 ft | 439 kts | 97° |
| 2026-05-04 12:22 | 50.35248 | 6.65816 | 25842 ft | 435 kts | 97° |
| 2026-05-04 12:22 | 50.35080 | 6.70460 | 25263 ft | 432 kts | 97° |
| 2026-05-04 12:22 | 50.34902 | 6.75147 | 24723 ft | 428 kts | 97° |
| 2026-05-04 12:23 | 50.34718 | 6.79785 | 24157 ft | 425 kts | 97° |
| 2026-05-04 12:23 | 50.34531 | 6.84382 | 23605 ft | 421 kts | 97° |
| 2026-05-04 12:23 | 50.34343 | 6.88941 | 22985 ft | 417 kts | 97° |
| 2026-05-04 12:23 | 50.34156 | 6.93455 | 22385 ft | 413 kts | 97° |
| 2026-05-04 12:24 | 50.33969 | 6.97924 | 21796 ft | 409 kts | 97° |
| 2026-05-04 12:24 | 50.33781 | 7.02338 | 21216 ft | 404 kts | 97° |
| 2026-05-04 12:24 | 50.33595 | 7.06712 | 20633 ft | 401 kts | 97° |
| 2026-05-04 12:24 | 50.33409 | 7.11045 | 20066 ft | 397 kts | 97° |
| 2026-05-04 12:25 | 50.33223 | 7.15338 | 19528 ft | 393 kts | 97° |
| 2026-05-04 12:25 | 50.33036 | 7.19594 | 18977 ft | 390 kts | 97° |
| 2026-05-04 12:25 | 50.32850 | 7.23820 | 18438 ft | 387 kts | 97° |
| 2026-05-04 12:25 | 50.32664 | 7.27991 | 17866 ft | 383 kts | 97° |
| 2026-05-04 12:26 | 50.32481 | 7.32072 | 17300 ft | 379 kts | 97° |
| 2026-05-04 12:26 | 50.32295 | 7.36180 | 16747 ft | 376 kts | 97° |
| 2026-05-04 12:26 | 50.32110 | 7.40245 | 16190 ft | 373 kts | 97° |
| 2026-05-04 12:26 | 50.31925 | 7.44272 | 15662 ft | 369 kts | 97° |
| 2026-05-04 12:27 | 50.31740 | 7.48265 | 15116 ft | 367 kts | 97° |
| 2026-05-04 12:27 | 50.31555 | 7.52228 | 14608 ft | 364 kts | 97° |
| 2026-05-04 12:27 | 50.31370 | 7.56165 | 14058 ft | 362 kts | 97° |
| 2026-05-04 12:27 | 50.31186 | 7.60063 | 13542 ft | 358 kts | 97° |
| 2026-05-04 12:28 | 50.31002 | 7.63934 | 13006 ft | 355 kts | 97° |
| 2026-05-04 12:28 | 50.30820 | 7.67767 | 12463 ft | 352 kts | 97° |
| 2026-05-04 12:28 | 50.30636 | 7.71571 | 11942 ft | 349 kts | 97° |
| 2026-05-04 12:28 | 50.30452 | 7.75340 | 11384 ft | 346 kts | 97° |
| 2026-05-04 12:29 | 50.30269 | 7.79065 | 11090 ft | 341 kts | 97° |
| 2026-05-04 12:29 | 50.30085 | 7.82775 | 10999 ft | 345 kts | 97° |
| 2026-05-04 12:29 | 50.29899 | 7.86514 | 11005 ft | 347 kts | 97° |
| 2026-05-04 12:29 | 50.29711 | 7.90276 | 10991 ft | 345 kts | 97° |
| 2026-05-04 12:30 | 50.29526 | 7.93965 | 10991 ft | 345 kts | 97° |
| 2026-05-04 12:30 | 50.29334 | 7.97759 | 10991 ft | 346 kts | 97° |
| 2026-05-04 12:30 | 50.29143 | 8.01507 | 10992 ft | 345 kts | 97° |
| 2026-05-04 12:30 | 50.28954 | 8.05199 | 10986 ft | 346 kts | 97° |
| 2026-05-04 12:31 | 50.28762 | 8.08938 | 10840 ft | 343 kts | 97° |
| 2026-05-04 12:31 | 50.28569 | 8.12658 | 10436 ft | 342 kts | 97° |
| 2026-05-04 12:31 | 50.28377 | 8.16340 | 9938 ft | 340 kts | 97° |
| 2026-05-04 12:31 | 50.28186 | 8.19983 | 9692 ft | 329 kts | 97° |
| 2026-05-04 12:32 | 50.28004 | 8.23473 | 9548 ft | 315 kts | 97° |
| 2026-05-04 12:32 | 50.27658 | 8.30043 | 9196 ft | 294 kts | 97° |
| 2026-05-04 12:32 | 50.27487 | 8.33205 | 8807 ft | 291 kts | 97° |
| 2026-05-04 12:33 | 50.27315 | 8.36359 | 8391 ft | 291 kts | 97° |
| 2026-05-04 12:33 | 50.27144 | 8.39509 | 8031 ft | 289 kts | 97° |
| 2026-05-04 12:33 | 50.26974 | 8.42635 | 7607 ft | 290 kts | 97° |
| 2026-05-04 12:33 | 50.26803 | 8.45764 | 7380 ft | 287 kts | 97° |
| 2026-05-04 12:34 | 50.26541 | 8.48843 | 7114 ft | 285 kts | 103° |
| 2026-05-04 12:34 | 50.26167 | 8.51870 | 7000 ft | 286 kts | 103° |
| 2026-05-04 12:34 | 50.25776 | 8.54920 | 6988 ft | 286 kts | 103° |
| 2026-05-04 12:34 | 50.25384 | 8.57976 | 6990 ft | 286 kts | 103° |
| 2026-05-04 12:35 | 50.24989 | 8.61017 | 6993 ft | 286 kts | 103° |
| 2026-05-04 12:35 | 50.24589 | 8.64071 | 6993 ft | 286 kts | 103° |
| 2026-05-04 12:35 | 50.24188 | 8.67113 | 6968 ft | 285 kts | 103° |
| 2026-05-04 12:35 | 50.23784 | 8.70132 | 6732 ft | 284 kts | 103° |
| 2026-05-04 12:36 | 50.23381 | 8.73148 | 6376 ft | 284 kts | 103° |
| 2026-05-04 12:36 | 50.22977 | 8.76128 | 5991 ft | 283 kts | 103° |
| 2026-05-04 12:36 | 50.22573 | 8.79124 | 5663 ft | 281 kts | 103° |
| 2026-05-04 12:36 | 50.22168 | 8.82106 | 5284 ft | 280 kts | 103° |
| 2026-05-04 12:37 | 50.21767 | 8.85077 | 4941 ft | 279 kts | 103° |
| 2026-05-04 12:37 | 50.21365 | 8.88033 | 4594 ft | 277 kts | 104° |
| 2026-05-04 12:37 | 50.20894 | 8.90924 | 4252 ft | 274 kts | 116° |
| 2026-05-04 12:37 | 50.19785 | 8.93235 | 4048 ft | 262 kts | 145° |
| 2026-05-04 12:38 | 50.18195 | 8.94456 | 4004 ft | 253 kts | 163° |
| 2026-05-04 12:38 | 50.16560 | 8.95348 | 4001 ft | 243 kts | 164° |
| 2026-05-04 12:38 | 50.14935 | 8.95833 | 3994 ft | 237 kts | 187° |
| 2026-05-04 12:38 | 50.13427 | 8.95018 | 3997 ft | 225 kts | 218° |
| 2026-05-04 12:39 | 50.12296 | 8.93391 | 3994 ft | 222 kts | 236° |
| 2026-05-04 12:39 | 50.11661 | 8.91232 | 4001 ft | 226 kts | 251° |
| 2026-05-04 12:39 | 50.11178 | 8.88906 | 4003 ft | 223 kts | 251° |
| 2026-05-04 12:39 | 50.10692 | 8.86685 | 3992 ft | 210 kts | 250° |
| 2026-05-04 12:40 | 50.10210 | 8.84624 | 3892 ft | 197 kts | 250° |
| 2026-05-04 12:40 | 50.09737 | 8.82638 | 3620 ft | 192 kts | 249° |
| 2026-05-04 12:40 | 50.09281 | 8.80721 | 3366 ft | 187 kts | 248° |
| 2026-05-04 12:40 | 50.08832 | 8.78840 | 3076 ft | 183 kts | 248° |
| 2026-05-04 12:41 | 50.08393 | 8.77008 | 2842 ft | 178 kts | 248° |
| 2026-05-04 12:41 | 50.07969 | 8.75227 | 2597 ft | 172 kts | 248° |
| 2026-05-04 12:41 | 50.07559 | 8.73515 | 2379 ft | 165 kts | 248° |
| 2026-05-04 12:41 | 50.07177 | 8.71914 | 2160 ft | 150 kts | 249° |
| 2026-05-04 12:42 | 50.06829 | 8.70456 | 1964 ft | 138 kts | 248° |
| 2026-05-04 12:42 | 50.06499 | 8.69077 | 1801 ft | 138 kts | 249° |
| 2026-05-04 12:42 | 50.06159 | 8.67655 | 1620 ft | 143 kts | 248° |
| 2026-05-04 12:42 | 50.05812 | 8.66203 | 1424 ft | 142 kts | 249° |
| 2026-05-04 12:43 | 50.05469 | 8.64771 | 1219 ft | 140 kts | 249° |
| 2026-05-04 12:43 | 50.05134 | 8.63370 | 1041 ft | 136 kts | 250° |
| 2026-05-04 12:43 | 50.04801 | 8.61975 | 857 ft | 140 kts | 250° |
| 2026-05-04 12:43 | 50.04458 | 8.60540 | 676 ft | 139 kts | 249° |
| 2026-05-04 12:44 | 50.04128 | 8.59161 | 481 ft | 136 kts | 249° |
| 2026-05-04 12:44 | 50.03800 | 8.57795 | 363 ft | 128 kts | 249° |
| 2026-05-04 12:44 | 50.03547 | 8.56749 | 358 ft | 93 kts | 250° |
| 2026-05-04 12:44 | 50.03391 | 8.56105 | 359 ft | 47 kts | 249° |
| 2026-05-04 12:45 | 50.03279 | 8.55688 | 351 ft | 31 kts | 236° |
| 2026-05-04 12:45 | 50.03135 | 8.55451 | 351 ft | 27 kts | 220° |
| 2026-05-04 12:45 | 50.03088 | 8.55389 | 350 ft | 0 kts | 220° |
| 2026-05-04 12:46 | 50.03086 | 8.55386 | 349 ft | 3 kts | 220° |
| 2026-05-04 12:47 | 50.03050 | 8.55356 | 339 ft | 7 kts | 168° |
| 2026-05-04 12:47 | 50.03027 | 8.55380 | 345 ft | 0 kts | 127° |
| 2026-05-04 12:47 | 50.03028 | 8.55385 | 344 ft | 1 kts | 95° |
| 2026-05-04 12:48 | 50.03035 | 8.55399 | 346 ft | 4 kts | 62° |
| 2026-05-04 12:48 | 50.03056 | 8.55467 | 344 ft | 9 kts | 72° |
| 2026-05-04 12:48 | 50.03080 | 8.55582 | 350 ft | 13 kts | 70° |
| 2026-05-04 12:48 | 50.03114 | 8.55726 | 346 ft | 16 kts | 70° |
| 2026-05-04 12:49 | 50.03154 | 8.55896 | 350 ft | 18 kts | 70° |
| 2026-05-04 12:49 | 50.03201 | 8.56090 | 348 ft | 20 kts | 69° |
| 2026-05-04 12:49 | 50.03255 | 8.56308 | 351 ft | 23 kts | 70° |
| 2026-05-04 12:49 | 50.03308 | 8.56533 | 352 ft | 19 kts | 69° |
| 2026-05-04 12:50 | 50.03358 | 8.56738 | 355 ft | 21 kts | 70° |
| 2026-05-04 12:50 | 50.03410 | 8.56960 | 359 ft | 22 kts | 70° |
| 2026-05-04 12:50 | 50.03440 | 8.57085 | 358 ft | 0 kts | 69° |
| 2026-05-04 12:53 | 50.03442 | 8.57095 | 356 ft | 4 kts | 69° |
| 2026-05-04 12:54 | 50.03461 | 8.57173 | 353 ft | 11 kts | 69° |
| 2026-05-04 12:54 | 50.03493 | 8.57304 | 361 ft | 15 kts | 70° |
| 2026-05-04 12:54 | 50.03530 | 8.57463 | 356 ft | 15 kts | 70° |
| 2026-05-04 12:54 | 50.03495 | 8.57584 | 355 ft | 15 kts | 162° |
| 2026-05-04 12:55 | 50.03389 | 8.57637 | 362 ft | 17 kts | 162° |
| 2026-05-04 12:55 | 50.03326 | 8.57696 | 356 ft | 11 kts | 122° |
| 2026-05-04 12:55 | 50.03341 | 8.57797 | 357 ft | 10 kts | 65° |
| 2026-05-04 12:55 | 50.03354 | 8.57855 | 363 ft | 0 kts | 71° |